createdAt,value
2018-06-09T00:01:22.310Z,144.30
2018-06-09T00:03:50.608Z,143.90
2018-06-09T00:06:18.821Z,147.20
2018-06-09T00:08:47.070Z,153.43
2018-06-09T00:11:15.289Z,150.03
2018-06-09T00:13:43.462Z,162.33
2018-06-09T00:16:11.722Z,162.73
2018-06-09T00:18:39.720Z,164.10
2018-06-09T00:21:07.701Z,171.43
2018-06-09T00:23:35.658Z,174.53
2018-06-09T00:26:03.632Z,175.37
2018-06-09T00:28:31.829Z,180.27
2018-06-09T00:30:59.808Z,187.53
2018-06-09T00:33:27.817Z,171.47
2018-06-09T00:35:55.802Z,174.67
2018-06-09T00:38:23.993Z,191.90
2018-06-09T00:42:21.320Z,177.17
2018-06-09T00:44:49.602Z,174.03
2018-06-09T00:47:17.801Z,196.47
2018-06-09T00:49:45.993Z,202.57
2018-06-09T00:52:14.230Z,181.23
2018-06-09T00:54:42.506Z,197.30
2018-06-09T00:57:10.745Z,210.53
2018-06-09T00:59:39.039Z,188.23
2018-06-09T01:02:07.246Z,189.27
2018-06-09T01:04:35.437Z,172.57
2018-06-09T01:07:03.704Z,187.83
2018-06-09T01:09:31.872Z,202.20
2018-06-09T01:12:00.077Z,190.37
2018-06-09T01:14:28.325Z,207.53
2018-06-09T01:16:56.537Z,200.93
2018-06-09T01:19:25.286Z,220.63
2018-06-09T01:21:53.560Z,232.17
2018-06-09T01:24:21.835Z,219.43
2018-06-09T01:26:50.144Z,213.63
2018-06-09T01:29:18.437Z,228.10
2018-06-09T01:31:46.647Z,237.53
2018-06-09T01:34:14.912Z,232.33
2018-06-09T01:36:42.869Z,214.93
2018-06-09T01:39:11.092Z,208.07
2018-06-09T01:41:40.078Z,209.63
2018-06-09T01:44:08.045Z,193.00
2018-06-09T01:46:36.914Z,213.83
2018-06-09T01:49:05.253Z,240.40
2018-06-09T01:51:33.429Z,275.77
2018-06-09T01:54:01.730Z,241.73
2018-06-09T01:56:30.058Z,246.60
2018-06-09T01:58:58.053Z,231.70
2018-06-09T02:01:26.281Z,229.13
2018-06-09T02:03:54.533Z,233.47
2018-06-09T02:06:22.807Z,233.33
2018-06-09T02:08:51.043Z,250.60
2018-06-09T02:11:19.264Z,210.90
2018-06-09T02:13:47.521Z,210.87
2018-06-09T02:16:15.693Z,221.87
2018-06-09T02:18:43.676Z,219.23
2018-06-09T02:21:11.847Z,220.03
2018-06-09T02:23:40.089Z,196.53
2018-06-09T02:26:08.348Z,198.80
2018-06-09T02:28:36.748Z,212.40
2018-06-09T02:31:05.105Z,206.90
2018-06-09T02:33:33.381Z,208.50
2018-06-09T02:36:01.577Z,192.43
2018-06-09T02:38:29.764Z,196.30
2018-06-09T02:40:58.023Z,186.00
2018-06-09T02:43:26.209Z,191.73
2018-06-09T02:45:54.440Z,183.10
2018-06-09T02:48:22.422Z,189.80
2018-06-09T02:50:50.677Z,180.23
2018-06-09T02:53:18.888Z,195.07
2018-06-09T02:55:47.094Z,189.87
2018-06-09T02:58:15.359Z,202.37
2018-06-09T03:00:43.623Z,197.47
2018-06-09T03:03:11.881Z,182.60
2018-06-09T03:05:40.090Z,203.80
2018-06-09T03:08:08.045Z,190.07
2018-06-09T03:10:36.291Z,199.90
2018-06-09T03:13:04.517Z,220.40
2018-06-09T03:15:32.786Z,194.53
2018-06-09T03:18:01.073Z,209.33
2018-06-09T03:20:29.333Z,210.57
2018-06-09T03:22:57.635Z,225.40
2018-06-09T03:25:25.822Z,219.87
2018-06-09T03:27:54.062Z,216.03
2018-06-09T03:30:22.325Z,259.23
2018-06-09T03:32:50.509Z,244.47
2018-06-09T03:35:18.466Z,252.20
2018-06-09T03:37:46.747Z,238.37
2018-06-09T03:40:14.736Z,253.53
2018-06-09T03:42:43.049Z,266.90
2018-06-09T03:45:11.273Z,260.90
2018-06-09T03:47:39.536Z,270.27
2018-06-09T03:50:07.810Z,253.13
2018-06-09T03:52:36.022Z,268.13
2018-06-09T03:55:04.229Z,271.37
2018-06-09T03:57:32.530Z,264.40
2018-06-09T04:00:00.772Z,280.17
2018-06-09T04:02:28.984Z,261.03
2018-06-09T04:04:57.262Z,251.87
2018-06-09T04:07:25.568Z,261.00
2018-06-09T04:09:53.833Z,251.60
2018-06-09T04:12:22.058Z,242.60
2018-06-09T04:14:50.270Z,250.33
2018-06-09T04:17:18.519Z,253.00
2018-06-09T04:19:46.708Z,246.17
2018-06-09T04:22:14.920Z,221.00
2018-06-09T04:24:42.849Z,233.47
2018-06-09T04:27:11.118Z,244.77
2018-06-09T04:29:39.326Z,212.27
2018-06-09T04:32:07.663Z,246.20
2018-06-09T04:34:35.856Z,240.83
2018-06-09T04:37:04.065Z,211.97
2018-06-09T04:39:32.031Z,233.00
2018-06-09T04:42:00.017Z,255.97
2018-06-09T04:44:28.276Z,236.13
2018-06-09T04:46:56.489Z,234.93
2018-06-09T04:49:24.737Z,241.03
2018-06-09T04:51:53.006Z,212.50
2018-06-09T04:54:21.246Z,233.37
2018-06-09T04:56:49.561Z,234.10
2018-06-09T04:59:17.823Z,232.43
2018-06-09T05:01:46.013Z,244.07
2018-06-09T05:04:14.249Z,239.23
2018-06-09T05:06:42.505Z,244.30
2018-06-09T05:09:10.726Z,234.10
2018-06-09T05:11:38.908Z,213.67
2018-06-09T05:14:07.138Z,229.53
2018-06-09T05:16:35.375Z,213.37
2018-06-09T05:19:03.572Z,199.40
2018-06-09T05:21:31.840Z,210.23
2018-06-09T05:23:59.776Z,204.13
2018-06-09T05:26:27.995Z,194.90
2018-06-09T05:28:56.208Z,198.43
2018-06-09T05:31:24.418Z,193.13
2018-06-09T05:33:52.692Z,179.97
2018-06-09T05:36:20.889Z,192.63
2018-06-09T05:38:49.101Z,199.40
2018-06-09T05:41:17.353Z,182.17
2018-06-09T05:43:45.587Z,175.27
2018-06-09T05:46:13.770Z,202.33
2018-06-09T05:48:41.734Z,190.80
2018-06-09T05:51:09.958Z,184.60
2018-06-09T05:53:38.187Z,199.97
2018-06-09T05:56:06.477Z,224.53
2018-06-09T05:58:34.714Z,204.70
2018-06-09T06:01:02.667Z,214.77
2018-06-09T06:03:30.897Z,219.63
2018-06-09T06:05:59.090Z,226.33
2018-06-09T06:08:27.375Z,203.57
2018-06-09T06:10:55.571Z,192.67
2018-06-09T06:13:23.774Z,206.23
2018-06-09T06:15:51.949Z,204.07
2018-06-09T06:18:20.160Z,189.23
2018-06-09T06:20:48.313Z,193.57
2018-06-09T06:23:16.558Z,175.93
2018-06-09T06:25:44.765Z,168.73
2018-06-09T06:28:12.978Z,193.27
2018-06-09T06:30:40.920Z,183.73
2018-06-09T06:33:09.185Z,211.00
2018-06-09T06:35:37.425Z,198.80
2018-06-09T06:38:05.761Z,209.00
2018-06-09T06:40:34.017Z,199.50
2018-06-09T06:43:02.571Z,206.50
2018-06-09T06:45:30.810Z,182.97
2018-06-09T06:47:59.045Z,177.70
2018-06-09T06:50:27.322Z,184.47
2018-06-09T06:52:55.614Z,192.57
2018-06-09T06:55:30.325Z,197.47
2018-06-09T06:57:58.310Z,176.07
2018-06-09T07:00:26.518Z,169.17
2018-06-09T07:02:54.553Z,187.67
2018-06-09T07:05:22.749Z,175.70
2018-06-09T07:07:51.016Z,185.30
2018-06-09T07:10:19.145Z,212.77
2018-06-09T07:12:47.427Z,193.20
2018-06-09T07:15:15.643Z,218.10
2018-06-09T07:17:43.910Z,235.47
2018-06-09T07:20:12.097Z,242.13
2018-06-09T07:22:40.353Z,252.30
2018-06-09T07:25:08.614Z,260.27
2018-06-09T07:27:36.900Z,241.60
2018-06-09T07:30:05.680Z,221.23
2018-06-09T07:32:33.913Z,210.83
2018-06-09T07:35:02.202Z,211.97
2018-06-09T07:37:30.336Z,199.73
2018-06-09T07:39:58.540Z,224.57
2018-06-09T07:42:26.507Z,230.90
2018-06-09T07:44:54.627Z,217.93
2018-06-09T07:47:22.822Z,187.13
2018-06-09T07:49:51.033Z,212.03
2018-06-09T07:52:19.337Z,217.33
2018-06-09T07:54:47.344Z,202.43
2018-06-09T07:57:15.590Z,203.97
2018-06-09T07:59:43.856Z,201.27
2018-06-09T08:02:12.095Z,197.10
2018-06-09T08:04:40.317Z,179.80
2018-06-09T08:07:08.541Z,213.57
2018-06-09T08:09:36.512Z,198.10
2018-06-09T08:12:05.699Z,192.40
2018-06-09T08:14:33.932Z,177.23
2018-06-09T08:17:02.155Z,199.40
2018-06-09T08:19:30.456Z,220.43
2018-06-09T08:21:58.773Z,219.13
2018-06-09T08:24:26.978Z,198.20
2018-06-09T08:26:55.298Z,199.10
2018-06-09T08:29:23.270Z,202.50
2018-06-09T08:31:51.522Z,200.00
2018-06-09T08:34:19.741Z,193.20
2018-06-09T08:36:48.007Z,167.70
2018-06-09T08:39:16.270Z,178.93
2018-06-09T08:41:44.501Z,155.80
2018-06-09T08:44:12.783Z,183.67
2018-06-09T08:46:40.994Z,154.77
2018-06-09T08:49:09.201Z,161.00
2018-06-09T08:51:37.445Z,165.00
2018-06-09T08:54:05.668Z,162.10
2018-06-09T08:56:33.857Z,150.23
2018-06-09T08:59:01.858Z,143.57
2018-06-09T09:01:29.856Z,139.30
2018-06-09T09:03:58.069Z,152.47
2018-06-09T09:06:26.140Z,128.93
2018-06-09T09:08:54.344Z,153.03
2018-06-09T09:11:22.633Z,132.90
2018-06-09T09:13:50.636Z,131.80
2018-06-09T09:16:18.918Z,135.43
2018-06-09T09:18:47.121Z,130.80
2018-06-09T09:21:15.389Z,158.43
2018-06-09T09:23:43.629Z,147.47
2018-06-09T09:26:11.875Z,147.90
2018-06-09T09:28:40.183Z,132.97
2018-06-09T09:31:08.397Z,115.57
2018-06-09T09:33:36.601Z,133.87
2018-06-09T09:36:04.902Z,116.93
2018-06-09T09:38:33.209Z,118.57
2018-06-09T09:41:01.458Z,121.83
2018-06-09T09:43:29.665Z,116.33
2018-06-09T09:45:57.896Z,111.57
2018-06-09T09:48:26.085Z,138.20
2018-06-09T09:50:54.307Z,115.07
2018-06-09T09:53:22.300Z,125.27
2018-06-09T09:55:50.497Z,122.63
2018-06-09T09:58:19.444Z,128.17
2018-06-09T10:00:47.757Z,119.67
2018-06-09T10:03:15.736Z,115.10
2018-06-09T10:05:43.989Z,107.23
2018-06-09T10:08:12.259Z,101.37
2018-06-09T10:10:40.539Z,127.10
2018-06-09T10:13:08.982Z,129.13
2018-06-09T10:15:37.002Z,134.77
2018-06-09T10:18:05.329Z,118.73
2018-06-09T10:20:33.560Z,109.37
2018-06-09T10:23:01.896Z,112.23
2018-06-09T10:25:30.138Z,109.13
2018-06-09T10:27:58.128Z,103.87
2018-06-09T10:30:26.340Z,102.47
2018-06-09T10:32:54.563Z,101.67
2018-06-09T10:35:22.856Z,97.20
2018-06-09T10:37:51.053Z,97.93
2018-06-09T10:40:19.341Z,95.50
2018-06-09T10:42:47.353Z,113.60
2018-06-09T10:45:15.601Z,106.97
2018-06-09T10:47:43.801Z,128.27
2018-06-09T10:50:11.971Z,103.80
2018-06-09T10:52:40.205Z,115.20
2018-06-09T10:55:08.458Z,101.73
2018-06-09T10:57:36.785Z,99.90
2018-06-09T11:00:05.222Z,93.97
2018-06-09T11:02:33.469Z,96.70
2018-06-09T11:05:01.499Z,115.80
2018-06-09T11:07:29.718Z,95.90
2018-06-09T11:09:58.276Z,90.70
2018-06-09T11:12:26.453Z,100.60
2018-06-09T11:14:54.686Z,98.17
2018-06-09T11:17:22.881Z,108.80
2018-06-09T11:19:51.125Z,112.97
2018-06-09T11:22:19.412Z,87.87
2018-06-09T11:24:47.692Z,89.90
2018-06-09T11:27:15.920Z,82.63
2018-06-09T11:29:43.916Z,101.77
2018-06-09T11:32:12.155Z,95.70
2018-06-09T11:34:40.413Z,111.47
2018-06-09T11:37:08.669Z,113.53
2018-06-09T11:39:36.930Z,106.90
2018-06-09T11:42:05.160Z,92.17
2018-06-09T11:44:33.353Z,94.13
2018-06-09T11:47:01.682Z,91.70
2018-06-09T11:49:29.547Z,88.37
2018-06-09T11:51:58.040Z,87.43
2018-06-09T11:54:26.099Z,93.97
2018-06-09T11:56:54.306Z,89.17
2018-06-09T11:59:22.605Z,98.70
2018-06-09T12:01:50.896Z,87.30
2018-06-09T12:04:19.177Z,92.77
2018-06-09T12:06:47.434Z,102.30
2018-06-09T12:09:15.669Z,107.10
2018-06-09T12:11:43.921Z,124.10
2018-06-09T12:14:11.952Z,96.97
2018-06-09T12:16:40.218Z,96.10
2018-06-09T12:19:08.390Z,96.60
2018-06-09T12:21:36.787Z,88.00
2018-06-09T12:24:04.763Z,92.97
2018-06-09T12:26:32.991Z,108.63
2018-06-09T12:29:01.068Z,94.80
2018-06-09T12:31:29.358Z,91.50
2018-06-09T12:33:57.629Z,74.20
2018-06-09T12:36:26.522Z,90.27
2018-06-09T12:38:54.772Z,78.90
2018-06-09T12:41:23.015Z,93.73
2018-06-09T12:43:50.977Z,89.27
2018-06-09T12:46:19.254Z,76.03
2018-06-09T12:48:47.771Z,75.93
2018-06-09T12:51:16.373Z,70.30
2018-06-09T12:53:44.662Z,71.10
2018-06-09T12:56:12.879Z,78.73
2018-06-09T12:58:41.169Z,75.23
2018-06-09T13:01:10.188Z,98.07
2018-06-09T13:03:38.216Z,70.60
2018-06-09T13:06:07.061Z,76.43
2018-06-09T13:08:35.327Z,76.57
2018-06-09T13:11:03.557Z,71.67
2018-06-09T13:13:31.815Z,79.63
2018-06-09T13:16:00.272Z,72.63
2018-06-09T13:18:28.640Z,70.03
2018-06-09T13:20:56.969Z,59.83
2018-06-09T13:23:25.190Z,72.00
2018-06-09T13:25:53.405Z,68.20
2018-06-09T13:28:21.717Z,71.17
2018-06-09T13:30:50.578Z,71.93
2018-06-09T13:33:18.847Z,62.50
2018-06-09T13:35:47.148Z,68.13
2018-06-09T13:38:15.309Z,55.27
2018-06-09T13:40:50.338Z,60.03
2018-06-09T13:43:18.590Z,65.57
2018-06-09T13:45:46.844Z,56.83
2018-06-09T13:48:15.086Z,65.83
2018-06-09T13:50:43.362Z,60.97
2018-06-09T13:53:11.654Z,67.70
2018-06-09T13:55:39.902Z,69.47
2018-06-09T13:58:08.161Z,52.43
2018-06-09T14:00:36.441Z,54.03
2018-06-09T14:03:04.722Z,50.73
2018-06-09T14:05:32.697Z,46.43
2018-06-09T14:08:00.947Z,51.53
2018-06-09T14:10:29.250Z,53.53
2018-06-09T14:12:57.477Z,58.13
2018-06-09T14:15:25.671Z,49.97
2018-06-09T14:17:59.944Z,55.73
2018-06-09T14:20:28.173Z,55.30
2018-06-09T14:22:56.473Z,57.17
2018-06-09T14:25:24.733Z,53.13
2018-06-09T14:27:53.008Z,49.60
2018-06-09T14:30:21.001Z,45.77
2018-06-09T14:32:49.002Z,53.57
2018-06-09T14:35:17.251Z,54.50
2018-06-09T14:37:45.497Z,48.73
2018-06-09T14:40:13.749Z,59.67
2018-06-09T14:42:41.973Z,55.73
2018-06-09T14:45:10.229Z,43.77
2018-06-09T14:47:38.445Z,41.57
2018-06-09T14:50:06.669Z,58.57
2018-06-09T14:52:34.902Z,49.30
2018-06-09T14:55:03.096Z,51.40
2018-06-09T14:57:31.293Z,37.47
2018-06-09T14:59:59.589Z,41.07
2018-06-09T15:02:27.884Z,42.17
2018-06-09T15:04:56.070Z,38.80
2018-06-09T15:07:24.288Z,41.57
2018-06-09T15:09:52.545Z,38.60
2018-06-09T15:12:20.748Z,34.73
2018-06-09T15:14:48.921Z,42.90
2018-06-09T15:17:17.171Z,37.33
2018-06-09T15:19:45.476Z,34.30
2018-06-09T15:22:13.713Z,31.30
2018-06-09T15:24:41.729Z,39.50
2018-06-09T15:27:09.997Z,34.37
2018-06-09T15:29:38.180Z,44.70
2018-06-09T15:32:06.428Z,37.03
2018-06-09T15:34:34.666Z,34.70
2018-06-09T15:37:02.877Z,31.27
2018-06-09T15:39:31.114Z,28.80
2018-06-09T15:41:59.334Z,27.43
2018-06-09T15:44:27.570Z,30.53
2018-06-09T15:46:55.496Z,32.73
2018-06-09T15:49:23.535Z,28.77
2018-06-09T15:51:51.828Z,32.50
2018-06-09T15:54:19.792Z,28.70
2018-06-09T15:56:47.993Z,28.20
2018-06-09T15:59:16.261Z,30.23
2018-06-09T16:01:44.229Z,27.90
2018-06-09T16:04:12.450Z,28.00
2018-06-09T16:06:40.673Z,24.10
2018-06-09T16:09:09.051Z,26.50
2018-06-09T16:11:37.108Z,26.47
2018-06-09T16:14:05.421Z,27.63
2018-06-09T16:16:33.738Z,28.30
2018-06-09T16:19:01.902Z,29.83
2018-06-09T16:21:30.109Z,31.60
2018-06-09T16:23:58.419Z,33.33
2018-06-09T16:26:26.638Z,33.13
2018-06-09T16:28:54.949Z,47.63
2018-06-09T16:31:23.497Z,32.60
2018-06-09T16:33:52.630Z,32.93
2018-06-09T16:36:20.901Z,32.17
2018-06-09T16:41:51.651Z,33.47
2018-06-09T16:44:19.956Z,32.77
2018-06-09T16:46:48.205Z,34.83
2018-06-09T16:49:16.482Z,30.70
2018-06-09T16:51:44.856Z,27.30
2018-06-09T16:54:13.116Z,32.73
2018-06-09T16:56:41.361Z,29.90
2018-06-09T16:59:09.578Z,32.60
2018-06-09T17:01:37.873Z,33.57
2018-06-09T17:04:06.183Z,31.23
2018-06-09T17:06:34.430Z,37.60
2018-06-09T17:09:02.569Z,31.53
2018-06-09T17:11:30.865Z,38.07
2018-06-09T17:13:59.106Z,34.03
2018-06-09T17:16:27.491Z,33.50
2018-06-09T17:18:55.795Z,29.53
2018-06-09T17:21:24.037Z,29.57
2018-06-09T17:23:52.231Z,31.37
2018-06-09T17:26:20.497Z,28.03
2018-06-09T17:28:48.749Z,29.80
2018-06-09T17:31:16.983Z,27.97
2018-06-09T17:33:45.237Z,45.37
2018-06-09T17:36:13.541Z,30.73
2018-06-09T17:38:41.789Z,26.43
2018-06-09T17:41:09.825Z,38.37
2018-06-09T17:43:38.090Z,29.77
2018-06-09T17:46:06.308Z,28.20
2018-06-09T17:48:34.582Z,32.33
2018-06-09T17:51:02.851Z,27.63
2018-06-09T17:53:31.103Z,30.07
2018-06-09T17:55:59.339Z,27.73
2018-06-09T17:58:27.576Z,28.70
2018-06-09T18:00:55.874Z,29.27
2018-06-09T18:03:24.195Z,26.43
2018-06-09T18:05:52.184Z,30.73
2018-06-09T18:08:20.198Z,27.90
2018-06-09T18:10:48.375Z,30.50
2018-06-09T18:13:16.693Z,28.57
2018-06-09T18:15:44.909Z,29.73
2018-06-09T18:18:13.978Z,35.80
2018-06-09T18:20:42.316Z,28.00
2018-06-09T18:23:10.574Z,32.53
2018-06-09T18:25:38.823Z,33.30
2018-06-09T18:28:07.137Z,28.97
2018-06-09T18:30:35.374Z,31.13
2018-06-09T18:33:03.788Z,32.87
2018-06-09T18:35:32.011Z,30.90
2018-06-09T18:38:00.335Z,31.63
2018-06-09T18:40:28.579Z,31.33
2018-06-09T18:42:56.921Z,28.20
2018-06-09T18:45:25.238Z,33.10
2018-06-09T18:47:54.123Z,32.33
2018-06-09T18:50:22.417Z,35.83
2018-06-09T18:52:50.690Z,25.07
2018-06-09T18:55:19.226Z,29.43
2018-06-09T18:57:47.498Z,29.30
2018-06-09T19:00:15.898Z,31.77
2018-06-09T19:02:47.130Z,30.80
2018-06-09T19:05:15.365Z,35.83
2018-06-09T19:07:43.641Z,35.73
2018-06-09T19:10:11.898Z,33.67
2018-06-09T19:12:40.235Z,31.67
2018-06-09T19:15:08.561Z,31.67
2018-06-09T19:17:36.799Z,29.27
2018-06-09T19:20:05.073Z,36.70
2018-06-09T19:22:33.082Z,32.53
2018-06-09T19:25:01.338Z,39.10
2018-06-09T19:27:29.650Z,33.70
2018-06-09T19:29:57.910Z,39.60
2018-06-09T19:32:26.161Z,32.33
2018-06-09T19:34:54.534Z,41.03
2018-06-09T19:37:22.801Z,39.87
2018-06-09T19:39:51.090Z,40.53
2018-06-09T19:42:19.368Z,38.90
2018-06-09T19:44:47.675Z,39.20
2018-06-09T19:47:15.906Z,37.30
2018-06-09T19:49:44.166Z,34.73
2018-06-09T19:52:12.402Z,48.33
2018-06-09T19:54:40.639Z,35.03
2018-06-09T19:57:08.914Z,39.50
2018-06-09T19:59:37.205Z,36.93
2018-06-09T20:02:05.463Z,40.47
2018-06-09T20:04:33.785Z,37.03
2018-06-09T20:07:02.379Z,42.90
2018-06-09T20:09:30.636Z,44.43
2018-06-09T20:11:58.897Z,48.20
2018-06-09T20:14:27.227Z,42.90
2018-06-09T20:16:55.466Z,45.80
2018-06-09T20:19:23.742Z,47.70
2018-06-09T20:21:51.993Z,43.60
2018-06-09T20:24:20.246Z,43.57
2018-06-09T20:26:48.585Z,51.93
2018-06-09T20:29:16.604Z,42.33
2018-06-09T20:31:44.885Z,44.37
2018-06-09T20:34:13.076Z,49.87
2018-06-09T20:36:41.329Z,51.80
2018-06-09T20:39:09.546Z,51.57
2018-06-09T20:41:37.757Z,55.27
2018-06-09T20:44:06.160Z,51.27
2018-06-09T20:46:34.473Z,53.10
2018-06-09T20:49:02.789Z,53.40
2018-06-09T20:51:31.017Z,55.37
2018-06-09T20:53:59.291Z,42.30
2018-06-09T20:56:27.556Z,53.43
2018-06-09T20:58:55.849Z,57.93
2018-06-09T21:01:24.062Z,56.17
2018-06-09T21:03:52.302Z,55.97
2018-06-09T21:06:20.539Z,55.17
2018-06-09T21:08:48.793Z,51.40
2018-06-09T21:11:17.085Z,48.97
2018-06-09T21:13:45.325Z,49.00
2018-06-09T21:16:13.602Z,52.77
2018-06-09T21:18:41.834Z,50.70
2018-06-09T21:21:10.122Z,50.10
2018-06-09T21:23:38.315Z,50.43
2018-06-09T21:26:06.558Z,57.20
2018-06-09T21:28:40.042Z,57.90
2018-06-09T21:31:13.759Z,70.93
2018-06-09T21:33:58.542Z,67.73
2018-06-09T21:36:27.827Z,63.70
2018-06-09T21:39:00.741Z,56.37
2018-06-09T21:41:34.098Z,62.17
2018-06-09T21:44:07.665Z,58.40
2018-06-09T21:46:40.137Z,66.50
2018-06-09T21:49:08.421Z,59.73
2018-06-09T21:51:36.736Z,64.00
2018-06-09T21:54:05.047Z,80.77
2018-06-09T21:56:33.274Z,72.03
2018-06-09T21:59:01.470Z,71.57
2018-06-09T22:01:29.762Z,84.80
2018-06-09T22:03:58.017Z,88.90
2018-06-09T22:06:26.257Z,102.07
2018-06-09T22:08:54.489Z,127.23
2018-06-09T22:11:22.681Z,120.13
2018-06-09T22:13:50.951Z,115.87
2018-06-09T22:16:19.158Z,124.63
2018-06-09T22:18:47.393Z,119.87
2018-06-09T22:21:15.392Z,122.30
2018-06-09T22:23:43.348Z,130.17
2018-06-09T22:26:14.657Z,135.33
2018-06-09T22:28:42.928Z,145.50
2018-06-09T22:31:11.213Z,147.70
2018-06-09T22:33:39.655Z,129.70
2018-06-09T22:36:07.845Z,142.17
2018-06-09T22:38:36.085Z,148.13
2018-06-09T22:41:04.309Z,134.97
2018-06-09T22:43:32.693Z,127.80
2018-06-09T22:46:00.935Z,139.80
2018-06-09T22:48:28.895Z,137.00
2018-06-09T22:50:57.101Z,146.20
2018-06-09T22:53:25.432Z,135.53
2018-06-09T22:55:53.674Z,134.97
2018-06-09T22:58:22.648Z,138.63
2018-06-09T23:00:51.513Z,141.57
2018-06-09T23:03:19.765Z,140.93
2018-06-09T23:05:48.090Z,150.03
2018-06-09T23:08:16.365Z,162.23
2018-06-09T23:10:44.674Z,142.83
2018-06-09T23:13:12.934Z,155.13
2018-06-09T23:15:41.201Z,148.00
2018-06-09T23:18:09.502Z,161.77
2018-06-09T23:20:37.803Z,160.17
2018-06-09T23:23:06.014Z,169.87
2018-06-09T23:25:34.039Z,170.83
2018-06-09T23:28:02.273Z,168.67
2018-06-09T23:30:30.562Z,154.47
2018-06-09T23:32:58.821Z,124.20
2018-06-09T23:35:27.121Z,140.60
2018-06-09T23:38:58.072Z,113.97
2018-06-09T23:41:26.369Z,71.90
2018-06-09T23:43:54.621Z,67.57
2018-06-09T23:46:22.902Z,54.80
2018-06-09T23:48:51.147Z,59.77
2018-06-09T23:51:19.429Z,57.47
2018-06-09T23:53:47.707Z,59.90
2018-06-09T23:56:16.016Z,54.87
2018-06-09T23:58:44.141Z,55.47
